Myrtle Point, OR (97458)

8:35 AM PST on February 13, 2016 (GMT -0800)
Arago | | Change Station
CLOSE
Current Station
Personal Weather Station
Location: Myrtle Point, OR
Elevation: 175 ft
Nearby Weather Stations

Elev 175 ft 43.09 °N, 124.20 °W | Updated 2 seconds ago

Overcast
Overcast
42.1 °F
Feels Like 42 °F
N
0.0
Wind Variable Wind from SE
Gusts 0.0 mph

Today
High -- | Low -- °F
--% Chance of Precip.
Yesterday
High -- | Low -- °F
Precip. -- in
Pressure 30.38 in
Visibility 7.0 miles
Clouds Overcast 200 ft
Windchill 42 °F
Dew Point 42 °F
Humidity 98%
Rainfall 0.00 in
Snow Depth Not available.
7:17 AM 5:44 PM
Waxing Crescent, 32% visible
METAR KOTH 131615Z 16007KT 7SM OVC002 07/07 A3038 RMK AO1
Pressure 30.38 in
Visibility 7.0 miles
Clouds Overcast 200 ft
Windchill 42 °F
Dew Point 42 °F
Humidity 98%
Rainfall 0.00 in
Snow Depth Not available.
7:17 AM 5:44 PM
Waxing Crescent, 32% visible
METAR KOTH 131615Z 16007KT 7SM OVC002 07/07 A3038 RMK AO1

10-Day Weather Forecast

Almanac

Astronomy

Feb. 13, 2016 Rise Set
Actual Time
Civil Twilight
Nautical Twilight
Astronomical Twilight
Moon
Length of Visible Light
Length of Day
Tomorrow will be .
, % of the Moon is Illuminated

Today's Extremes

State Highs State Lows

Community

WunderPhotos

Upload Photos

1,892,600 photos uploaded!

WunderBlog® & News

Nearby

Air Quality

  Air Quality AQ Index Pollutant
Not available.

Snow Depth

Station Depth Elevation

Earthquake Activity

City Distance Mag. Time & Date
Minimum magnitude displayed is 2.5.

Coastal Water Temperatures

Place Temperature

Stations

Nearby Weather Stations

Station Location Temp. Windchill Dew Point Humidity Wind Precip. Elev Updated Type
                   

Watches & Warnings

There are currently no watches in effect.